Metar Aviation Weather Data     LHBP Budapest Liszt Ferenc International Airport
Temperature
12°C Temperature
7°C Dewpoint
72% Humidity



Wind
35 KM/H
22 MPH
10 M/S
19 KTS



300°
NYÉNY
Current Conditions

Partly Cloudy Partly Cloudy
Pressure 1006.92 (hPa) - 29.73 (inHg)
Visibility 6.2 (mile) - 10 (km)
Repülőtér
Airport-code LHBP

Location: Budapest Liszt Ferenc International Airport
Távolság: 14 (km)

Metar:
LHBP 180400Z 30019KT 9999 FEW030 12/07 Q1007 NOSIG

Idő: 2021-05-18 05:00 BST